createdAt,value
2022-11-12T00:00:59.360Z,98.05
2022-11-12T00:04:02.036Z,98.20
2022-11-12T00:07:04.779Z,98.34
2022-11-12T00:10:08.225Z,98.28
2022-11-12T00:13:11.893Z,98.59
2022-11-12T00:16:14.100Z,97.83
2022-11-12T00:19:16.376Z,97.63
2022-11-12T00:22:18.945Z,97.58
2022-11-12T00:25:21.755Z,96.77
2022-11-12T00:28:26.036Z,96.52
2022-11-12T00:31:28.506Z,96.86
2022-11-12T00:34:31.462Z,96.19
2022-11-12T00:37:33.769Z,96.25
2022-11-12T00:40:36.441Z,95.32
2022-11-12T00:43:40.392Z,95.91
2022-11-12T00:46:43.142Z,95.03
2022-11-12T00:49:45.467Z,95.55
2022-11-12T00:52:47.998Z,94.65
2022-11-12T00:55:50.069Z,96.21
2022-11-12T00:58:53.977Z,95.79
2022-11-12T01:01:56.149Z,96.25
2022-11-12T01:04:58.702Z,96.14
2022-11-12T01:08:00.972Z,97.39
2022-11-12T01:11:08.629Z,97.78
2022-11-12T01:14:12.410Z,98.13
2022-11-12T01:17:14.696Z,97.91
2022-11-12T01:20:17.718Z,97.84
2022-11-12T01:23:19.976Z,98.73
2022-11-12T01:26:24.116Z,97.92
2022-11-12T01:29:28.012Z,97.79
2022-11-12T01:32:30.487Z,98.16
2022-11-12T01:35:32.907Z,97.52
2022-11-12T01:38:36.369Z,98.00
2022-11-12T01:41:40.619Z,98.32
2022-11-12T01:44:46.533Z,97.96
2022-11-12T01:47:52.408Z,98.18
2022-11-12T01:50:55.406Z,98.16
2022-11-12T01:54:00.157Z,97.59
2022-11-12T01:57:03.457Z,97.64
2022-11-12T02:00:11.282Z,97.68
2022-11-12T02:03:17.407Z,96.59
2022-11-12T02:06:20.681Z,97.33
2022-11-12T02:09:23.263Z,96.16
2022-11-12T02:12:43.045Z,97.75
2022-11-12T02:16:08.651Z,97.30
2022-11-12T02:19:13.198Z,96.95
2022-11-12T02:22:16.799Z,97.11
2022-11-12T02:25:22.586Z,96.62
2022-11-12T02:28:25.398Z,97.15
2022-11-12T02:31:27.926Z,97.72
2022-11-12T02:34:30.321Z,98.47
2022-11-12T02:37:33.896Z,98.25
2022-11-12T02:40:36.772Z,98.43
2022-11-12T02:43:38.894Z,97.80
2022-11-12T02:46:41.029Z,98.24
2022-11-12T02:49:44.703Z,97.86
2022-11-12T02:52:48.437Z,98.52
2022-11-12T02:55:50.979Z,98.16
2022-11-12T02:58:53.249Z,98.25
2022-11-12T03:01:55.937Z,98.90
2022-11-12T03:04:58.402Z,99.27
2022-11-12T03:08:04.687Z,100.00
2022-11-12T03:11:12.602Z,99.51
2022-11-12T03:14:14.951Z,99.82
2022-11-12T03:17:17.602Z,99.61
2022-11-12T03:20:20.412Z,99.24
2022-11-12T03:23:24.501Z,98.91
2022-11-12T03:26:29.540Z,98.86
2022-11-12T03:29:35.553Z,98.27
2022-11-12T03:32:37.788Z,97.82
2022-11-12T03:35:40.425Z,97.29
2022-11-12T03:38:43.901Z,97.66
2022-11-12T03:41:46.138Z,97.14
2022-11-12T03:44:48.266Z,98.35
2022-11-12T03:47:52.121Z,98.38
2022-11-12T03:50:58.159Z,97.69
2022-11-12T03:54:02.197Z,99.13
2022-11-12T03:57:04.500Z,98.33
2022-11-12T04:00:08.271Z,98.50
2022-11-12T04:03:10.575Z,99.37
2022-11-12T04:06:30.669Z,99.83
2022-11-12T04:09:34.402Z,99.47
2022-11-12T04:12:54.053Z,99.21
2022-11-12T04:16:15.307Z,97.78
2022-11-12T04:19:35.246Z,98.39
2022-11-12T04:22:37.612Z,99.16
2022-11-12T04:26:14.111Z,98.83
2022-11-12T04:29:37.460Z,98.05
2022-11-12T04:32:41.412Z,99.48
2022-11-12T04:35:43.814Z,99.10
2022-11-12T04:38:46.332Z,98.84
2022-11-12T04:42:06.856Z,99.24
2022-11-12T04:45:10.780Z,98.47
2022-11-12T04:48:13.285Z,98.84
2022-11-12T04:51:29.634Z,97.32
2022-11-12T04:54:32.192Z,97.20
2022-11-12T04:57:36.063Z,95.94
2022-11-12T05:00:38.348Z,96.86
2022-11-12T05:03:40.724Z,96.71
2022-11-12T05:06:55.535Z,96.08
2022-11-12T05:09:57.754Z,96.60
2022-11-12T05:13:01.458Z,96.55
2022-11-12T05:16:03.425Z,96.87
2022-11-12T05:19:05.995Z,97.20
2022-11-12T05:22:13.915Z,97.19
2022-11-12T05:25:24.216Z,96.60
2022-11-12T05:28:28.106Z,96.94
2022-11-12T05:31:30.787Z,97.40
2022-11-12T05:34:33.348Z,96.42
2022-11-12T05:37:35.425Z,96.24
2022-11-12T05:40:37.393Z,95.47
2022-11-12T05:43:41.356Z,95.54
2022-11-12T05:46:43.956Z,97.19
2022-11-12T05:49:46.075Z,98.58
2022-11-12T05:52:48.444Z,98.12
2022-11-12T05:55:50.568Z,98.22
2022-11-12T05:58:54.448Z,98.10
2022-11-12T06:01:56.968Z,97.60
2022-11-12T06:04:59.023Z,97.52
2022-11-12T06:08:02.062Z,97.25
2022-11-12T06:11:04.308Z,97.60
2022-11-12T06:14:07.976Z,98.12
2022-11-12T06:17:10.669Z,98.27
2022-11-12T06:20:13.948Z,99.78
2022-11-12T06:23:16.226Z,100.00
2022-11-12T06:26:18.876Z,99.53
2022-11-12T06:29:22.819Z,98.85
2022-11-12T06:32:25.133Z,99.77
2022-11-12T06:35:27.818Z,99.70
2022-11-12T06:38:31.461Z,100.00
2022-11-12T06:41:34.007Z,100.00
2022-11-12T06:44:37.341Z,100.00
2022-11-12T06:47:39.762Z,100.00
2022-11-12T06:50:42.003Z,99.60
2022-11-12T06:53:44.556Z,100.00
2022-11-12T06:56:47.189Z,100.00
2022-11-12T06:59:51.250Z,100.00
2022-11-12T07:02:53.892Z,99.77
2022-11-12T07:05:56.334Z,99.50
2022-11-12T07:08:58.882Z,99.33
2022-11-12T07:12:01.185Z,99.73
2022-11-12T07:15:05.288Z,100.00
2022-11-12T07:18:07.855Z,98.91
2022-11-12T07:21:13.123Z,97.96
2022-11-12T07:24:15.454Z,99.08
2022-11-12T07:27:17.585Z,98.68
2022-11-12T07:30:21.226Z,99.13
2022-11-12T07:33:23.718Z,99.39
2022-11-12T07:36:26.025Z,99.22
2022-11-12T07:39:28.236Z,98.65
2022-11-12T07:42:30.382Z,99.36
2022-11-12T07:45:34.381Z,98.04
2022-11-12T07:48:36.506Z,97.94
2022-11-12T07:51:38.519Z,96.65
2022-11-12T07:54:40.717Z,97.44
2022-11-12T07:57:43.265Z,98.06
2022-11-12T08:00:47.347Z,98.70
2022-11-12T08:03:49.284Z,98.51
2022-11-12T08:06:51.738Z,99.54
2022-11-12T08:09:54.604Z,100.00
2022-11-12T08:12:57.810Z,99.36
2022-11-12T08:16:02.166Z,100.00
2022-11-12T08:19:04.465Z,100.00
2022-11-12T08:22:06.627Z,99.85
2022-11-12T08:25:09.886Z,100.00
2022-11-12T08:28:12.035Z,100.00
2022-11-12T08:31:17.938Z,99.74
2022-11-12T08:34:22.819Z,100.00
2022-11-12T08:37:25.551Z,98.68
2022-11-12T08:40:28.653Z,98.30
2022-11-12T08:43:31.073Z,99.35
2022-11-12T08:46:34.775Z,98.53
2022-11-12T08:49:37.369Z,97.68
2022-11-12T08:52:39.688Z,97.61
2022-11-12T08:55:42.213Z,96.29
2022-11-12T08:58:44.503Z,96.16
2022-11-12T09:01:48.569Z,95.20
2022-11-12T09:04:51.101Z,95.30
2022-11-12T09:07:59.038Z,94.70
2022-11-12T09:11:01.418Z,94.24
2022-11-12T09:14:04.197Z,94.33
2022-11-12T09:17:08.467Z,92.47
2022-11-12T09:20:11.328Z,93.88
2022-11-12T09:23:15.401Z,93.11
2022-11-12T09:26:17.821Z,92.28
2022-11-12T09:29:20.414Z,92.72
2022-11-12T09:32:24.102Z,91.77
2022-11-12T09:35:26.677Z,91.06
2022-11-12T09:38:29.944Z,88.63
2022-11-12T09:41:36.128Z,88.65
2022-11-12T09:44:41.161Z,88.11
2022-11-12T09:47:48.311Z,87.42
2022-11-12T09:50:59.724Z,86.83
2022-11-12T09:54:07.889Z,86.77
2022-11-12T09:57:12.840Z,87.09
2022-11-12T10:00:19.633Z,85.46
2022-11-12T10:03:34.775Z,84.49
2022-11-12T10:06:46.249Z,83.83
2022-11-12T10:10:00.698Z,83.39
2022-11-12T10:13:16.688Z,82.12
2022-11-12T10:16:44.623Z,84.36
2022-11-12T10:19:57.902Z,83.84
2022-11-12T10:23:11.360Z,83.91
2022-11-12T10:26:16.821Z,83.44
2022-11-12T10:29:32.044Z,81.84
2022-11-12T10:32:38.927Z,83.25
2022-11-12T10:35:42.824Z,82.11
2022-11-12T10:38:46.585Z,84.32
2022-11-12T10:42:03.672Z,83.35
2022-11-12T10:45:22.220Z,83.28
2022-11-12T10:48:29.142Z,82.73
2022-11-12T10:51:35.739Z,81.64
2022-11-12T10:54:39.349Z,80.59
2022-11-12T10:57:41.974Z,80.44
2022-11-12T11:00:58.959Z,80.47
2022-11-12T11:04:01.396Z,80.31
2022-11-12T11:07:07.584Z,79.52
2022-11-12T11:10:25.797Z,80.90
2022-11-12T11:13:29.281Z,80.83
2022-11-12T11:16:32.179Z,81.29
2022-11-12T11:19:39.029Z,81.20
2022-11-12T11:22:47.206Z,80.67
2022-11-12T11:25:54.828Z,80.07
2022-11-12T11:29:03.962Z,80.18
2022-11-12T11:32:17.801Z,82.16
2022-11-12T11:35:28.775Z,81.34
2022-11-12T11:38:42.570Z,81.01
2022-11-12T11:42:04.495Z,81.91
2022-11-12T11:45:18.606Z,82.09
2022-11-12T11:48:36.397Z,82.92
2022-11-12T11:51:52.286Z,81.92
2022-11-12T11:55:10.103Z,80.50
2022-11-12T11:58:34.079Z,81.88
2022-11-12T12:01:56.052Z,83.24
2022-11-12T12:05:09.063Z,83.19
2022-11-12T12:08:17.494Z,81.36
2022-11-12T12:11:25.047Z,81.90
2022-11-12T12:14:42.433Z,83.34
2022-11-12T12:17:53.821Z,82.02
2022-11-12T12:21:03.727Z,82.39
2022-11-12T12:24:14.053Z,82.70
2022-11-12T12:27:21.434Z,82.76
2022-11-12T12:30:25.914Z,83.08
2022-11-12T12:33:33.423Z,84.03
2022-11-12T12:36:39.567Z,85.02
2022-11-12T12:39:51.125Z,86.36
2022-11-12T12:43:01.061Z,85.22
2022-11-12T12:46:05.316Z,85.41
2022-11-12T12:49:12.014Z,85.05
2022-11-12T12:52:15.397Z,85.21
2022-11-12T12:55:40.473Z,85.08
2022-11-12T12:58:46.887Z,85.72
2022-11-12T13:01:57.718Z,85.40
2022-11-12T13:05:00.150Z,84.76
2022-11-12T13:08:07.245Z,85.94
2022-11-12T13:11:10.572Z,86.04
2022-11-12T13:14:52.437Z,86.68
2022-11-12T13:17:56.058Z,86.09
2022-11-12T13:21:14.840Z,85.91
2022-11-12T13:24:17.732Z,85.73
2022-11-12T13:28:11.200Z,85.09
2022-11-12T13:31:28.434Z,83.58
2022-11-12T13:34:35.065Z,84.80
2022-11-12T13:37:44.669Z,85.41
2022-11-12T13:40:49.478Z,84.95
2022-11-12T13:43:52.935Z,86.05
2022-11-12T13:46:56.254Z,84.88
2022-11-12T13:50:02.865Z,86.24
2022-11-12T13:53:09.196Z,86.45
2022-11-12T13:56:11.803Z,86.57
2022-11-12T13:59:16.795Z,87.33
2022-11-12T14:02:23.430Z,87.67
2022-11-12T14:05:29.649Z,86.52
2022-11-12T14:08:57.010Z,87.12
2022-11-12T14:12:16.500Z,85.83
2022-11-12T14:15:30.745Z,85.53
2022-11-12T14:18:43.318Z,85.34
2022-11-12T14:21:59.891Z,85.73
2022-11-12T14:25:03.596Z,85.82
2022-11-12T14:28:06.437Z,87.84
2022-11-12T14:31:14.358Z,87.91
2022-11-12T14:34:23.954Z,87.60
2022-11-12T14:37:42.969Z,88.31
2022-11-12T14:40:50.147Z,87.98
2022-11-12T14:44:11.426Z,89.07
2022-11-12T14:47:19.372Z,89.58
2022-11-12T14:50:25.239Z,88.11
2022-11-12T14:53:34.484Z,87.79
2022-11-12T14:56:41.800Z,88.82
2022-11-12T14:59:44.018Z,88.81
2022-11-12T15:02:58.803Z,89.00
2022-11-12T15:06:12.550Z,88.96
2022-11-12T15:09:21.805Z,88.69
2022-11-12T15:12:26.422Z,88.44
2022-11-12T15:15:28.530Z,87.80
2022-11-12T15:18:32.322Z,87.13
2022-11-12T15:21:35.068Z,88.05
2022-11-12T15:24:39.277Z,89.44
2022-11-12T15:27:44.130Z,89.75
2022-11-12T15:31:01.685Z,90.55
2022-11-12T15:34:26.476Z,89.66
2022-11-12T15:37:31.681Z,90.58
2022-11-12T15:40:44.301Z,90.79
2022-11-12T15:43:47.003Z,90.14
2022-11-12T15:46:49.468Z,90.27
2022-11-12T15:49:53.494Z,90.71
2022-11-12T15:52:56.062Z,90.20
2022-11-12T15:55:59.668Z,90.83
2022-11-12T15:59:01.984Z,91.47
2022-11-12T16:02:04.879Z,92.18
2022-11-12T16:05:13.162Z,92.49
2022-11-12T16:08:16.110Z,92.35
2022-11-12T16:11:37.894Z,92.89
2022-11-12T16:14:40.771Z,92.48
2022-11-12T16:17:43.430Z,93.27
2022-11-12T16:20:47.228Z,93.29
2022-11-12T16:23:49.319Z,92.65
2022-11-12T16:26:53.575Z,93.65
2022-11-12T16:29:56.169Z,93.48
2022-11-12T16:32:59.419Z,92.35
2022-11-12T16:36:01.998Z,92.48
2022-11-12T16:39:04.914Z,91.66
2022-11-12T16:42:10.830Z,92.37
2022-11-12T16:45:14.278Z,93.17
2022-11-12T16:48:21.879Z,92.12
2022-11-12T16:51:24.705Z,92.59
2022-11-12T16:54:27.135Z,92.02
2022-11-12T16:57:31.096Z,92.41
2022-11-12T17:00:33.500Z,92.52
2022-11-12T17:03:35.797Z,92.48
2022-11-12T17:06:40.004Z,93.03
2022-11-12T17:09:42.135Z,93.18
2022-11-12T17:12:49.953Z,93.66
2022-11-12T17:15:58.790Z,93.70
2022-11-12T17:19:02.557Z,93.15
2022-11-12T17:22:04.988Z,93.98
2022-11-12T17:25:08.260Z,93.68
2022-11-12T17:28:11.958Z,94.15
2022-11-12T17:31:16.384Z,94.79
2022-11-12T17:34:18.761Z,94.28
2022-11-12T17:37:20.756Z,94.40
2022-11-12T17:40:23.197Z,93.42
2022-11-12T17:43:27.659Z,94.52
2022-11-12T17:46:30.247Z,94.05
2022-11-12T17:49:32.346Z,94.65
2022-11-12T17:52:34.482Z,95.38
2022-11-12T17:55:36.516Z,94.67
2022-11-12T17:58:40.631Z,94.56
2022-11-12T18:01:42.819Z,94.87
2022-11-12T18:04:45.336Z,95.32
2022-11-12T18:07:47.706Z,95.65
2022-11-12T18:10:49.836Z,96.06
2022-11-12T18:13:53.694Z,96.33
2022-11-12T18:16:56.973Z,95.68
2022-11-12T18:19:58.858Z,95.76
2022-11-12T18:23:01.139Z,95.87
2022-11-12T18:26:03.723Z,95.79
2022-11-12T18:29:07.672Z,95.91
2022-11-12T18:32:09.769Z,96.04
2022-11-12T18:35:12.204Z,95.47
2022-11-12T18:38:14.449Z,96.43
2022-11-12T18:41:17.998Z,96.01
2022-11-12T18:44:25.844Z,95.92
2022-11-12T18:47:30.577Z,96.63
2022-11-12T18:50:32.544Z,96.37
2022-11-12T18:53:35.430Z,96.45
2022-11-12T18:56:40.053Z,95.98
2022-11-12T18:59:43.981Z,95.62
2022-11-12T19:02:47.939Z,95.83
2022-11-12T19:05:50.249Z,95.57
2022-11-12T19:08:52.766Z,95.66
2022-11-12T19:11:55.515Z,95.96
2022-11-12T19:14:59.278Z,95.13
2022-11-12T19:18:01.845Z,94.42
2022-11-12T19:21:05.960Z,94.48
2022-11-12T19:24:09.186Z,95.03
2022-11-12T19:27:11.487Z,94.05
2022-11-12T19:30:15.558Z,94.16
2022-11-12T19:33:18.224Z,93.53
2022-11-12T19:36:22.678Z,94.13
2022-11-12T19:39:25.010Z,94.25
2022-11-12T19:42:27.576Z,94.51
2022-11-12T19:45:31.659Z,93.81
2022-11-12T19:48:34.195Z,94.86
2022-11-12T19:51:36.495Z,93.96
2022-11-12T19:54:38.704Z,94.14
2022-11-12T19:57:41.309Z,93.79
2022-11-12T20:00:45.363Z,93.50
2022-11-12T20:03:47.579Z,94.44
2022-11-12T20:06:49.801Z,94.07
2022-11-12T20:09:56.530Z,94.27
2022-11-12T20:13:02.099Z,94.71
2022-11-12T20:16:08.813Z,94.39
2022-11-12T20:19:11.220Z,93.60
2022-11-12T20:22:13.949Z,94.62
2022-11-12T20:25:16.415Z,94.45
2022-11-12T20:28:19.479Z,94.26
2022-11-12T20:31:23.494Z,94.83
2022-11-12T20:34:26.746Z,94.04
2022-11-12T20:37:30.859Z,93.47
2022-11-12T20:40:34.273Z,92.06
2022-11-12T20:43:36.951Z,89.82
2022-11-12T20:46:41.126Z,89.18
2022-11-12T20:49:43.532Z,88.45
2022-11-12T20:52:47.485Z,89.21
2022-11-12T20:55:49.685Z,88.71
2022-11-12T20:58:51.989Z,89.11
2022-11-12T21:01:57.801Z,89.17
2022-11-12T21:05:00.376Z,87.43
2022-11-12T21:08:03.163Z,87.11
2022-11-12T21:11:07.614Z,86.70
2022-11-12T21:14:12.193Z,86.88
2022-11-12T21:17:16.031Z,88.34
2022-11-12T21:20:18.604Z,88.27
2022-11-12T21:23:21.643Z,88.38
2022-11-12T21:26:24.406Z,89.54
2022-11-12T21:29:26.910Z,89.34
2022-11-12T21:32:30.977Z,89.30
2022-11-12T21:35:33.390Z,88.44
2022-11-12T21:38:35.677Z,88.66
2022-11-12T21:41:38.225Z,88.09
2022-11-12T21:44:40.813Z,87.32
2022-11-12T21:47:44.720Z,88.06
2022-11-12T21:50:47.298Z,88.48
2022-11-12T21:53:54.137Z,89.29
2022-11-12T21:56:56.786Z,88.07
2022-11-12T22:00:19.441Z,90.27
2022-11-12T22:03:23.340Z,90.05
2022-11-12T22:06:28.062Z,89.75
2022-11-12T22:09:30.659Z,89.53
2022-11-12T22:12:32.978Z,89.43
2022-11-12T22:15:35.373Z,89.73
2022-11-12T22:18:39.568Z,89.72
2022-11-12T22:21:42.203Z,89.46
2022-11-12T22:24:44.434Z,89.06
2022-11-12T22:27:47.844Z,89.79
2022-11-12T22:30:50.346Z,88.66
2022-11-12T22:33:54.420Z,89.04
2022-11-12T22:36:57.009Z,90.16
2022-11-12T22:39:59.260Z,91.21
2022-11-12T22:43:01.666Z,90.07
2022-11-12T22:46:06.276Z,89.52
2022-11-12T22:49:10.064Z,89.91
2022-11-12T22:52:12.313Z,90.43
2022-11-12T22:55:14.400Z,91.46
2022-11-12T22:58:16.648Z,90.72
2022-11-12T23:01:21.517Z,91.29
2022-11-12T23:04:24.957Z,90.71
2022-11-12T23:07:27.217Z,90.78
2022-11-12T23:10:29.597Z,89.43
2022-11-12T23:13:32.277Z,90.26
2022-11-12T23:16:35.408Z,89.98
2022-11-12T23:19:39.226Z,90.00
2022-11-12T23:22:41.973Z,90.35
2022-11-12T23:25:45.269Z,90.12
2022-11-12T23:28:47.848Z,90.80
2022-11-12T23:31:50.021Z,92.03
2022-11-12T23:34:54.194Z,90.97
2022-11-12T23:37:56.747Z,90.48
2022-11-12T23:40:59.021Z,91.57
2022-11-12T23:44:01.291Z,90.98
2022-11-12T23:47:03.489Z,90.35
2022-11-12T23:50:08.557Z,91.59
2022-11-12T23:53:11.067Z,91.01
2022-11-12T23:56:15.933Z,91.31
2022-11-12T23:59:18.727Z,90.96
